KANW/ANW METAR and TAF weather

Enter ICAO airport designator
Station Type Date Time Source
KANW METAR 2022/05/24 12:55 UTC NOAA

KANW 241255Z AUTO 00000KT 10SM OVC065 08/07 A3011 RMK AO2 T00800068


Station Type Date Time Source
KANW Decoded METAR 2022/05/24 12:55 UTC NOAA

Ainsworth Municipal, NE, United States (KANW) 42-35N 100-00W
May 24, 2022 - 08:55 AM EDT / 2022.05.24 1255 UTC
Wind: Calm:0
Visibility: 10 mile(s):0
Sky conditions: overcast
Temperature: 46.4 F (8.0 C)
Dew Point: 44.2 F (6.8 C)
Relative Humidity: 92%
Pressure (altimeter): 30.11 in. Hg (1019 hPa)
ob: KANW 241255Z AUTO 00000KT 10SM OVC065 08/07 A3011 RMK AO2 T00800068
cycle: 13

Station Type Date Time Source
KANW TAF UTC NOAA

Error!

Example: see airport list